Terminal Aerodrome Forecast
Issued by NWS Tulsa, OK

Home | Current Version | Previous Version | Text Only | Print | Product List | Glossary On
Versions: 1 2 3 4 5 6 7 8 9 10 11 12 13 14 15 16 17 18 19
000
FTUS44 KTSA 272100 AAC
TAFTUL
TAF AMD
KTUL 272109Z 2721/2818 05007KT 3SM -SN BR SCT020 OVC040
      TEMPO 2721/2724 1SM -SN BR BKN020
     FM280000 VRB06KT P6SM OVC020
      TEMPO 2800/2803 4SM -SN OVC010
     FM281400 12007KT 4SM -SN OVC010=

USA.gov is the U.S. government's official web portal to all federal, state and local government web resources and services.